sensor_id;sensor_type;location;lat;lon;timestamp;P1;durP1;ratioP1;P2;durP2;ratioP2
33170;SDS011;19535;50.672;4.206;2023-11-19T00:00:15;2.15;;;0.60;;
33170;SDS011;19535;50.672;4.206;2023-11-19T00:02:43;0.93;;;0.60;;
33170;SDS011;19535;50.672;4.206;2023-11-19T00:05:10;0.98;;;0.50;;
33170;SDS011;19535;50.672;4.206;2023-11-19T00:07:39;0.68;;;0.43;;
33170;SDS011;19535;50.672;4.206;2023-11-19T00:10:13;0.75;;;0.50;;
33170;SDS011;19535;50.672;4.206;2023-11-19T00:12:41;0.82;;;0.50;;
33170;SDS011;19535;50.672;4.206;2023-11-19T00:17:38;0.50;;;0.50;;
33170;SDS011;19535;50.672;4.206;2023-11-19T00:20:12;1.48;;;0.60;;
33170;SDS011;19535;50.672;4.206;2023-11-19T00:22:48;0.45;;;0.32;;
33170;SDS011;19535;50.672;4.206;2023-11-19T00:25:19;0.57;;;0.55;;
33170;SDS011;19535;50.672;4.206;2023-11-19T00:27:47;0.50;;;0.50;;
33170;SDS011;19535;50.672;4.206;2023-11-19T00:30:15;1.20;;;0.50;;
33170;SDS011;19535;50.672;4.206;2023-11-19T00:32:42;0.85;;;0.40;;
33170;SDS011;19535;50.672;4.206;2023-11-19T00:35:09;1.00;;;0.50;;
33170;SDS011;19535;50.672;4.206;2023-11-19T00:37:42;1.35;;;0.70;;
33170;SDS011;19535;50.672;4.206;2023-11-19T00:40:09;0.52;;;0.40;;
33170;SDS011;19535;50.672;4.206;2023-11-19T00:42:37;0.50;;;0.40;;
33170;SDS011;19535;50.672;4.206;2023-11-19T00:45:05;0.80;;;0.50;;
33170;SDS011;19535;50.672;4.206;2023-11-19T00:47:36;1.23;;;0.65;;
33170;SDS011;19535;50.672;4.206;2023-11-19T00:50:03;0.88;;;0.40;;
33170;SDS011;19535;50.672;4.206;2023-11-19T00:52:30;0.98;;;0.60;;
33170;SDS011;19535;50.672;4.206;2023-11-19T00:54:57;0.73;;;0.43;;
33170;SDS011;19535;50.672;4.206;2023-11-19T00:57:24;1.30;;;0.55;;
33170;SDS011;19535;50.672;4.206;2023-11-19T00:59:52;0.55;;;0.55;;
33170;SDS011;19535;50.672;4.206;2023-11-19T01:02:19;1.25;;;0.63;;
33170;SDS011;19535;50.672;4.206;2023-11-19T01:04:47;1.02;;;0.47;;
33170;SDS011;19535;50.672;4.206;2023-11-19T01:07:14;0.98;;;0.52;;
33170;SDS011;19535;50.672;4.206;2023-11-19T01:09:41;1.00;;;0.57;;
33170;SDS011;19535;50.672;4.206;2023-11-19T01:12:09;1.05;;;0.50;;
33170;SDS011;19535;50.672;4.206;2023-11-19T01:14:37;0.68;;;0.60;;
33170;SDS011;19535;50.672;4.206;2023-11-19T01:17:04;2.10;;;0.98;;
33170;SDS011;19535;50.672;4.206;2023-11-19T01:19:32;0.70;;;0.57;;
33170;SDS011;19535;50.672;4.206;2023-11-19T01:21:59;0.75;;;0.50;;
33170;SDS011;19535;50.672;4.206;2023-11-19T01:24:26;1.60;;;0.68;;
33170;SDS011;19535;50.672;4.206;2023-11-19T01:26:55;1.42;;;0.75;;
33170;SDS011;19535;50.672;4.206;2023-11-19T01:29:24;1.02;;;0.57;;
33170;SDS011;19535;50.672;4.206;2023-11-19T01:31:51;1.55;;;0.73;;
33170;SDS011;19535;50.672;4.206;2023-11-19T01:34:18;0.70;;;0.60;;
33170;SDS011;19535;50.672;4.206;2023-11-19T01:36:46;1.35;;;0.75;;
33170;SDS011;19535;50.672;4.206;2023-11-19T01:39:15;2.47;;;1.05;;
33170;SDS011;19535;50.672;4.206;2023-11-19T01:41:42;1.17;;;0.60;;
33170;SDS011;19535;50.672;4.206;2023-11-19T01:44:09;1.17;;;0.60;;
33170;SDS011;19535;50.672;4.206;2023-11-19T01:46:40;2.47;;;0.68;;
33170;SDS011;19535;50.672;4.206;2023-11-19T01:49:08;0.77;;;0.60;;
33170;SDS011;19535;50.672;4.206;2023-11-19T01:51:35;1.20;;;0.68;;
33170;SDS011;19535;50.672;4.206;2023-11-19T01:54:02;1.75;;;0.85;;
33170;SDS011;19535;50.672;4.206;2023-11-19T01:56:29;1.30;;;0.63;;
33170;SDS011;19535;50.672;4.206;2023-11-19T01:58:57;1.63;;;0.60;;
33170;SDS011;19535;50.672;4.206;2023-11-19T02:01:24;2.63;;;0.65;;
33170;SDS011;19535;50.672;4.206;2023-11-19T02:03:51;1.83;;;0.63;;
33170;SDS011;19535;50.672;4.206;2023-11-19T02:06:19;1.40;;;0.60;;
33170;SDS011;19535;50.672;4.206;2023-11-19T02:08:46;1.85;;;0.90;;
33170;SDS011;19535;50.672;4.206;2023-11-19T02:11:15;1.10;;;0.80;;
33170;SDS011;19535;50.672;4.206;2023-11-19T02:13:57;1.20;;;0.68;;
33170;SDS011;19535;50.672;4.206;2023-11-19T02:22:51;1.70;;;0.90;;
33170;SDS011;19535;50.672;4.206;2023-11-19T02:25:23;1.38;;;0.98;;
33170;SDS011;19535;50.672;4.206;2023-11-19T02:28:01;2.13;;;0.90;;
33170;SDS011;19535;50.672;4.206;2023-11-19T02:30:28;2.67;;;1.13;;
33170;SDS011;19535;50.672;4.206;2023-11-19T02:32:55;1.40;;;0.80;;
33170;SDS011;19535;50.672;4.206;2023-11-19T02:35:24;2.17;;;0.80;;
33170;SDS011;19535;50.672;4.206;2023-11-19T02:37:52;1.77;;;0.90;;
33170;SDS011;19535;50.672;4.206;2023-11-19T02:42:51;2.47;;;1.10;;
33170;SDS011;19535;50.672;4.206;2023-11-19T02:45:19;2.25;;;0.90;;
33170;SDS011;19535;50.672;4.206;2023-11-19T02:47:45;2.13;;;0.90;;
33170;SDS011;19535;50.672;4.206;2023-11-19T02:50:12;1.70;;;1.10;;
33170;SDS011;19535;50.672;4.206;2023-11-19T02:52:41;2.08;;;0.90;;
33170;SDS011;19535;50.672;4.206;2023-11-19T02:55:08;2.30;;;1.08;;
33170;SDS011;19535;50.672;4.206;2023-11-19T02:57:38;1.63;;;0.95;;
33170;SDS011;19535;50.672;4.206;2023-11-19T03:00:13;2.83;;;1.10;;
33170;SDS011;19535;50.672;4.206;2023-11-19T03:02:41;2.33;;;1.17;;
33170;SDS011;19535;50.672;4.206;2023-11-19T03:05:13;2.20;;;0.98;;
33170;SDS011;19535;50.672;4.206;2023-11-19T03:07:43;3.58;;;1.27;;
33170;SDS011;19535;50.672;4.206;2023-11-19T03:10:11;5.15;;;1.30;;
33170;SDS011;19535;50.672;4.206;2023-11-19T03:12:42;3.17;;;1.00;;
33170;SDS011;19535;50.672;4.206;2023-11-19T03:15:10;2.50;;;1.17;;
33170;SDS011;19535;50.672;4.206;2023-11-19T03:17:41;2.38;;;0.85;;
33170;SDS011;19535;50.672;4.206;2023-11-19T03:20:11;2.28;;;1.00;;
33170;SDS011;19535;50.672;4.206;2023-11-19T03:22:43;2.35;;;1.02;;
33170;SDS011;19535;50.672;4.206;2023-11-19T03:25:10;2.75;;;1.20;;
33170;SDS011;19535;50.672;4.206;2023-11-19T03:27:37;1.60;;;0.98;;
33170;SDS011;19535;50.672;4.206;2023-11-19T03:30:05;3.05;;;1.00;;
33170;SDS011;19535;50.672;4.206;2023-11-19T03:32:32;2.80;;;1.08;;
33170;SDS011;19535;50.672;4.206;2023-11-19T03:35:01;2.80;;;1.17;;
33170;SDS011;19535;50.672;4.206;2023-11-19T03:37:30;3.75;;;1.00;;
33170;SDS011;19535;50.672;4.206;2023-11-19T03:39:58;2.95;;;0.75;;
33170;SDS011;19535;50.672;4.206;2023-11-19T03:42:28;2.03;;;1.08;;
33170;SDS011;19535;50.672;4.206;2023-11-19T03:44:58;2.95;;;1.27;;
33170;SDS011;19535;50.672;4.206;2023-11-19T03:47:25;2.40;;;1.10;;
33170;SDS011;19535;50.672;4.206;2023-11-19T03:49:52;2.05;;;1.15;;
33170;SDS011;19535;50.672;4.206;2023-11-19T03:52:19;4.05;;;1.20;;
33170;SDS011;19535;50.672;4.206;2023-11-19T03:54:46;2.20;;;1.23;;
33170;SDS011;19535;50.672;4.206;2023-11-19T03:57:13;1.75;;;1.17;;
33170;SDS011;19535;50.672;4.206;2023-11-19T03:59:42;2.30;;;1.10;;
33170;SDS011;19535;50.672;4.206;2023-11-19T04:02:08;2.03;;;1.10;;
33170;SDS011;19535;50.672;4.206;2023-11-19T04:04:36;2.17;;;1.23;;
33170;SDS011;19535;50.672;4.206;2023-11-19T04:07:05;3.75;;;1.20;;
33170;SDS011;19535;50.672;4.206;2023-11-19T04:09:32;2.28;;;1.00;;
33170;SDS011;19535;50.672;4.206;2023-11-19T04:11:59;2.15;;;1.10;;
33170;SDS011;19535;50.672;4.206;2023-11-19T04:14:26;2.45;;;1.08;;
33170;SDS011;19535;50.672;4.206;2023-11-19T04:16:53;2.13;;;0.85;;
33170;SDS011;19535;50.672;4.206;2023-11-19T04:19:20;2.67;;;1.20;;
33170;SDS011;19535;50.672;4.206;2023-11-19T04:21:48;3.92;;;1.50;;
33170;SDS011;19535;50.672;4.206;2023-11-19T04:24:15;3.22;;;1.30;;
33170;SDS011;19535;50.672;4.206;2023-11-19T04:26:45;2.30;;;1.38;;
33170;SDS011;19535;50.672;4.206;2023-11-19T04:29:13;2.65;;;1.13;;
33170;SDS011;19535;50.672;4.206;2023-11-19T04:31:43;2.15;;;1.20;;
33170;SDS011;19535;50.672;4.206;2023-11-19T04:34:11;3.70;;;1.67;;
33170;SDS011;19535;50.672;4.206;2023-11-19T04:36:38;3.33;;;1.27;;
33170;SDS011;19535;50.672;4.206;2023-11-19T04:39:05;3.00;;;1.30;;
33170;SDS011;19535;50.672;4.206;2023-11-19T04:41:49;2.65;;;1.27;;
33170;SDS011;19535;50.672;4.206;2023-11-19T04:44:16;2.28;;;1.33;;
33170;SDS011;19535;50.672;4.206;2023-11-19T04:46:44;3.20;;;1.40;;
33170;SDS011;19535;50.672;4.206;2023-11-19T04:49:12;2.92;;;1.30;;
33170;SDS011;19535;50.672;4.206;2023-11-19T04:51:40;3.47;;;1.50;;
33170;SDS011;19535;50.672;4.206;2023-11-19T04:54:10;3.20;;;1.30;;
33170;SDS011;19535;50.672;4.206;2023-11-19T04:56:37;2.45;;;1.23;;
33170;SDS011;19535;50.672;4.206;2023-11-19T04:59:05;3.15;;;1.27;;
33170;SDS011;19535;50.672;4.206;2023-11-19T05:01:32;1.95;;;1.20;;
33170;SDS011;19535;50.672;4.206;2023-11-19T05:04:00;4.57;;;1.70;;
33170;SDS011;19535;50.672;4.206;2023-11-19T05:06:31;3.92;;;1.58;;
33170;SDS011;19535;50.672;4.206;2023-11-19T05:08:58;2.45;;;1.17;;
33170;SDS011;19535;50.672;4.206;2023-11-19T05:11:35;2.60;;;1.40;;
33170;SDS011;19535;50.672;4.206;2023-11-19T05:14:17;3.20;;;1.48;;
33170;SDS011;19535;50.672;4.206;2023-11-19T05:16:46;2.53;;;1.20;;
33170;SDS011;19535;50.672;4.206;2023-11-19T05:19:13;4.10;;;1.63;;
33170;SDS011;19535;50.672;4.206;2023-11-19T05:21:43;3.30;;;1.30;;
33170;SDS011;19535;50.672;4.206;2023-11-19T05:24:11;3.25;;;1.60;;
33170;SDS011;19535;50.672;4.206;2023-11-19T05:26:38;3.38;;;1.45;;
33170;SDS011;19535;50.672;4.206;2023-11-19T05:29:05;2.75;;;1.10;;
33170;SDS011;19535;50.672;4.206;2023-11-19T05:31:32;5.30;;;1.80;;
33170;SDS011;19535;50.672;4.206;2023-11-19T05:34:03;3.38;;;1.40;;
33170;SDS011;19535;50.672;4.206;2023-11-19T05:36:30;2.88;;;1.30;;
33170;SDS011;19535;50.672;4.206;2023-11-19T05:38:57;5.70;;;1.67;;
33170;SDS011;19535;50.672;4.206;2023-11-19T05:41:24;3.85;;;1.48;;
33170;SDS011;19535;50.672;4.206;2023-11-19T05:43:51;4.25;;;1.55;;
33170;SDS011;19535;50.672;4.206;2023-11-19T05:46:18;2.67;;;1.35;;
33170;SDS011;19535;50.672;4.206;2023-11-19T05:48:47;4.35;;;1.45;;
33170;SDS011;19535;50.672;4.206;2023-11-19T05:51:14;3.28;;;1.60;;
33170;SDS011;19535;50.672;4.206;2023-11-19T05:53:42;3.70;;;1.58;;
33170;SDS011;19535;50.672;4.206;2023-11-19T05:56:10;3.38;;;1.33;;
33170;SDS011;19535;50.672;4.206;2023-11-19T05:58:37;3.17;;;1.20;;
33170;SDS011;19535;50.672;4.206;2023-11-19T06:01:05;3.63;;;1.50;;
33170;SDS011;19535;50.672;4.206;2023-11-19T06:03:34;4.90;;;1.67;;
33170;SDS011;19535;50.672;4.206;2023-11-19T06:06:03;4.05;;;1.67;;
33170;SDS011;19535;50.672;4.206;2023-11-19T06:08:31;3.08;;;1.65;;
33170;SDS011;19535;50.672;4.206;2023-11-19T06:10:58;4.15;;;1.60;;
33170;SDS011;19535;50.672;4.206;2023-11-19T06:13:27;3.38;;;1.70;;
33170;SDS011;19535;50.672;4.206;2023-11-19T06:15:57;4.20;;;2.25;;
33170;SDS011;19535;50.672;4.206;2023-11-19T06:18:25;2.72;;;1.17;;
33170;SDS011;19535;50.672;4.206;2023-11-19T06:20:52;3.67;;;1.63;;
33170;SDS011;19535;50.672;4.206;2023-11-19T06:23:19;2.60;;;1.40;;
33170;SDS011;19535;50.672;4.206;2023-11-19T06:25:46;3.95;;;1.60;;
33170;SDS011;19535;50.672;4.206;2023-11-19T06:28:13;4.43;;;1.70;;
33170;SDS011;19535;50.672;4.206;2023-11-19T06:30:40;3.75;;;1.98;;
33170;SDS011;19535;50.672;4.206;2023-11-19T06:33:07;3.33;;;1.40;;
33170;SDS011;19535;50.672;4.206;2023-11-19T06:35:34;3.92;;;1.38;;
33170;SDS011;19535;50.672;4.206;2023-11-19T06:38:04;3.88;;;1.75;;
33170;SDS011;19535;50.672;4.206;2023-11-19T06:40:34;4.93;;;1.70;;
33170;SDS011;19535;50.672;4.206;2023-11-19T06:43:02;3.13;;;1.58;;
33170;SDS011;19535;50.672;4.206;2023-11-19T06:45:30;3.63;;;1.20;;
33170;SDS011;19535;50.672;4.206;2023-11-19T06:47:57;3.17;;;1.73;;
33170;SDS011;19535;50.672;4.206;2023-11-19T06:50:25;2.42;;;1.50;;
33170;SDS011;19535;50.672;4.206;2023-11-19T06:52:52;3.17;;;1.70;;
33170;SDS011;19535;50.672;4.206;2023-11-19T06:55:18;3.20;;;1.60;;
33170;SDS011;19535;50.672;4.206;2023-11-19T06:57:45;2.50;;;1.70;;
33170;SDS011;19535;50.672;4.206;2023-11-19T07:00:12;4.20;;;1.58;;
33170;SDS011;19535;50.672;4.206;2023-11-19T07:02:39;4.05;;;1.60;;
33170;SDS011;19535;50.672;4.206;2023-11-19T07:05:07;3.55;;;1.60;;
33170;SDS011;19535;50.672;4.206;2023-11-19T07:07:34;2.53;;;1.52;;
33170;SDS011;19535;50.672;4.206;2023-11-19T07:10:02;3.90;;;1.63;;
33170;SDS011;19535;50.672;4.206;2023-11-19T07:12:31;3.13;;;1.43;;
33170;SDS011;19535;50.672;4.206;2023-11-19T07:14:57;4.35;;;1.88;;
33170;SDS011;19535;50.672;4.206;2023-11-19T07:17:24;3.22;;;1.52;;
33170;SDS011;19535;50.672;4.206;2023-11-19T07:19:51;3.25;;;1.48;;
33170;SDS011;19535;50.672;4.206;2023-11-19T07:22:18;3.83;;;1.73;;
33170;SDS011;19535;50.672;4.206;2023-11-19T07:24:46;3.25;;;1.55;;
33170;SDS011;19535;50.672;4.206;2023-11-19T07:27:13;3.65;;;1.70;;
33170;SDS011;19535;50.672;4.206;2023-11-19T07:29:40;3.78;;;1.70;;
33170;SDS011;19535;50.672;4.206;2023-11-19T07:32:07;5.07;;;1.63;;
33170;SDS011;19535;50.672;4.206;2023-11-19T07:34:34;3.10;;;1.58;;
33170;SDS011;19535;50.672;4.206;2023-11-19T07:37:01;4.28;;;1.95;;
33170;SDS011;19535;50.672;4.206;2023-11-19T07:39:29;5.03;;;2.08;;
33170;SDS011;19535;50.672;4.206;2023-11-19T07:41:56;3.25;;;1.80;;
33170;SDS011;19535;50.672;4.206;2023-11-19T07:44:23;4.47;;;2.03;;
33170;SDS011;19535;50.672;4.206;2023-11-19T07:46:50;3.63;;;1.92;;
33170;SDS011;19535;50.672;4.206;2023-11-19T07:49:18;4.28;;;1.73;;
33170;SDS011;19535;50.672;4.206;2023-11-19T07:51:44;3.83;;;1.55;;
33170;SDS011;19535;50.672;4.206;2023-11-19T07:54:11;4.07;;;2.00;;
33170;SDS011;19535;50.672;4.206;2023-11-19T07:56:40;4.32;;;1.77;;
33170;SDS011;19535;50.672;4.206;2023-11-19T07:59:07;3.25;;;1.60;;
33170;SDS011;19535;50.672;4.206;2023-11-19T08:01:34;3.53;;;1.83;;
33170;SDS011;19535;50.672;4.206;2023-11-19T08:04:01;3.65;;;1.85;;
33170;SDS011;19535;50.672;4.206;2023-11-19T08:06:28;5.20;;;2.00;;
33170;SDS011;19535;50.672;4.206;2023-11-19T08:08:55;3.10;;;1.30;;
33170;SDS011;19535;50.672;4.206;2023-11-19T08:11:22;4.68;;;2.20;;
33170;SDS011;19535;50.672;4.206;2023-11-19T08:13:50;5.15;;;2.30;;
33170;SDS011;19535;50.672;4.206;2023-11-19T08:16:16;4.43;;;2.25;;
33170;SDS011;19535;50.672;4.206;2023-11-19T08:18:43;4.32;;;2.38;;
33170;SDS011;19535;50.672;4.206;2023-11-19T08:21:10;4.22;;;2.00;;
33170;SDS011;19535;50.672;4.206;2023-11-19T08:23:38;4.22;;;1.90;;
33170;SDS011;19535;50.672;4.206;2023-11-19T08:26:05;4.80;;;2.03;;
33170;SDS011;19535;50.672;4.206;2023-11-19T08:28:33;4.78;;;2.13;;
33170;SDS011;19535;50.672;4.206;2023-11-19T08:31:01;3.53;;;1.88;;
33170;SDS011;19535;50.672;4.206;2023-11-19T08:33:31;3.03;;;1.75;;
33170;SDS011;19535;50.672;4.206;2023-11-19T08:35:58;4.75;;;2.00;;
33170;SDS011;19535;50.672;4.206;2023-11-19T08:38:25;3.92;;;2.00;;
33170;SDS011;19535;50.672;4.206;2023-11-19T08:40:55;3.92;;;1.85;;
33170;SDS011;19535;50.672;4.206;2023-11-19T08:43:26;4.93;;;2.33;;
33170;SDS011;19535;50.672;4.206;2023-11-19T08:45:53;3.58;;;1.88;;
33170;SDS011;19535;50.672;4.206;2023-11-19T08:48:20;5.25;;;2.08;;
33170;SDS011;19535;50.672;4.206;2023-11-19T08:50:47;4.80;;;2.22;;
33170;SDS011;19535;50.672;4.206;2023-11-19T08:53:15;4.05;;;2.13;;
33170;SDS011;19535;50.672;4.206;2023-11-19T08:55:42;5.00;;;2.30;;
33170;SDS011;19535;50.672;4.206;2023-11-19T08:58:09;4.57;;;2.15;;
33170;SDS011;19535;50.672;4.206;2023-11-19T09:00:36;5.38;;;1.95;;
33170;SDS011;19535;50.672;4.206;2023-11-19T09:03:03;4.82;;;2.22;;
33170;SDS011;19535;50.672;4.206;2023-11-19T09:05:30;5.80;;;2.10;;
33170;SDS011;19535;50.672;4.206;2023-11-19T09:07:57;4.43;;;2.28;;
33170;SDS011;19535;50.672;4.206;2023-11-19T09:10:24;3.70;;;2.03;;
33170;SDS011;19535;50.672;4.206;2023-11-19T09:12:52;4.03;;;1.77;;
33170;SDS011;19535;50.672;4.206;2023-11-19T09:15:23;4.57;;;2.25;;
33170;SDS011;19535;50.672;4.206;2023-11-19T09:17:50;5.28;;;2.25;;
33170;SDS011;19535;50.672;4.206;2023-11-19T09:20:17;5.18;;;2.15;;
33170;SDS011;19535;50.672;4.206;2023-11-19T09:22:44;5.13;;;1.98;;
33170;SDS011;19535;50.672;4.206;2023-11-19T09:25:12;6.03;;;1.95;;
33170;SDS011;19535;50.672;4.206;2023-11-19T09:27:43;5.35;;;2.30;;
33170;SDS011;19535;50.672;4.206;2023-11-19T09:30:10;5.18;;;2.10;;
33170;SDS011;19535;50.672;4.206;2023-11-19T09:32:39;4.55;;;1.98;;
33170;SDS011;19535;50.672;4.206;2023-11-19T09:35:06;4.75;;;1.98;;
33170;SDS011;19535;50.672;4.206;2023-11-19T09:37:34;3.83;;;1.90;;
33170;SDS011;19535;50.672;4.206;2023-11-19T09:40:01;4.10;;;2.03;;
33170;SDS011;19535;50.672;4.206;2023-11-19T09:42:27;5.03;;;1.98;;
33170;SDS011;19535;50.672;4.206;2023-11-19T09:44:54;5.85;;;2.05;;
33170;SDS011;19535;50.672;4.206;2023-11-19T09:47:22;6.18;;;1.98;;
33170;SDS011;19535;50.672;4.206;2023-11-19T09:49:50;5.03;;;2.08;;
33170;SDS011;19535;50.672;4.206;2023-11-19T09:52:17;4.38;;;2.20;;
33170;SDS011;19535;50.672;4.206;2023-11-19T09:54:44;5.60;;;2.38;;
33170;SDS011;19535;50.672;4.206;2023-11-19T09:57:11;4.85;;;2.45;;
33170;SDS011;19535;50.672;4.206;2023-11-19T09:59:39;5.15;;;2.10;;
33170;SDS011;19535;50.672;4.206;2023-11-19T10:02:07;5.13;;;2.10;;
33170;SDS011;19535;50.672;4.206;2023-11-19T10:04:37;3.92;;;1.90;;
33170;SDS011;19535;50.672;4.206;2023-11-19T10:07:04;6.75;;;2.60;;
33170;SDS011;19535;50.672;4.206;2023-11-19T10:09:31;6.68;;;2.30;;
33170;SDS011;19535;50.672;4.206;2023-11-19T10:11:57;5.60;;;2.20;;
33170;SDS011;19535;50.672;4.206;2023-11-19T10:14:24;5.43;;;2.30;;
33170;SDS011;19535;50.672;4.206;2023-11-19T10:16:52;4.65;;;2.03;;
33170;SDS011;19535;50.672;4.206;2023-11-19T10:19:19;4.70;;;1.70;;
33170;SDS011;19535;50.672;4.206;2023-11-19T10:21:49;4.75;;;1.90;;
33170;SDS011;19535;50.672;4.206;2023-11-19T10:24:16;5.05;;;2.08;;
33170;SDS011;19535;50.672;4.206;2023-11-19T10:27:00;5.28;;;2.10;;
33170;SDS011;19535;50.672;4.206;2023-11-19T10:29:29;4.63;;;2.00;;
33170;SDS011;19535;50.672;4.206;2023-11-19T10:31:57;5.03;;;2.25;;
33170;SDS011;19535;50.672;4.206;2023-11-19T10:34:44;5.07;;;2.30;;
33170;SDS011;19535;50.672;4.206;2023-11-19T10:37:32;4.60;;;2.03;;
33170;SDS011;19535;50.672;4.206;2023-11-19T10:39:59;4.10;;;1.95;;
33170;SDS011;19535;50.672;4.206;2023-11-19T10:42:26;5.38;;;2.08;;
33170;SDS011;19535;50.672;4.206;2023-11-19T10:44:53;5.03;;;2.30;;
33170;SDS011;19535;50.672;4.206;2023-11-19T10:47:20;4.32;;;2.08;;
33170;SDS011;19535;50.672;4.206;2023-11-19T10:49:52;5.68;;;2.47;;
33170;SDS011;19535;50.672;4.206;2023-11-19T10:52:19;4.40;;;1.77;;
33170;SDS011;19535;50.672;4.206;2023-11-19T10:54:50;3.17;;;1.60;;
33170;SDS011;19535;50.672;4.206;2023-11-19T10:57:20;6.65;;;2.38;;
33170;SDS011;19535;50.672;4.206;2023-11-19T10:59:48;6.45;;;2.05;;
33170;SDS011;19535;50.672;4.206;2023-11-19T11:02:18;4.80;;;1.95;;
33170;SDS011;19535;50.672;4.206;2023-11-19T11:04:47;4.28;;;2.13;;
33170;SDS011;19535;50.672;4.206;2023-11-19T11:07:14;4.43;;;1.95;;
33170;SDS011;19535;50.672;4.206;2023-11-19T11:09:42;4.93;;;2.15;;
33170;SDS011;19535;50.672;4.206;2023-11-19T11:12:09;5.68;;;2.10;;
33170;SDS011;19535;50.672;4.206;2023-11-19T11:14:37;4.63;;;2.22;;
33170;SDS011;19535;50.672;4.206;2023-11-19T11:17:07;9.13;;;2.20;;
33170;SDS011;19535;50.672;4.206;2023-11-19T11:19:35;6.72;;;2.20;;
33170;SDS011;19535;50.672;4.206;2023-11-19T11:22:03;6.97;;;2.25;;
33170;SDS011;19535;50.672;4.206;2023-11-19T11:33:02;5.30;;;2.38;;
33170;SDS011;19535;50.672;4.206;2023-11-19T11:38:51;7.13;;;2.85;;
33170;SDS011;19535;50.672;4.206;2023-11-19T11:41:20;5.38;;;2.35;;
33170;SDS011;19535;50.672;4.206;2023-11-19T11:43:54;6.32;;;2.67;;
33170;SDS011;19535;50.672;4.206;2023-11-19T11:49:01;5.57;;;2.35;;
33170;SDS011;19535;50.672;4.206;2023-11-19T11:57:07;6.55;;;2.45;;
33170;SDS011;19535;50.672;4.206;2023-11-19T12:02:12;4.75;;;1.90;;
33170;SDS011;19535;50.672;4.206;2023-11-19T12:04:40;4.50;;;2.00;;
33170;SDS011;19535;50.672;4.206;2023-11-19T12:09:52;8.38;;;2.03;;
33170;SDS011;19535;50.672;4.206;2023-11-19T12:12:23;4.30;;;2.03;;
33170;SDS011;19535;50.672;4.206;2023-11-19T12:17:37;5.60;;;2.70;;
33170;SDS011;19535;50.672;4.206;2023-11-19T12:20:07;10.25;;;2.90;;
33170;SDS011;19535;50.672;4.206;2023-11-19T12:22:36;10.07;;;2.75;;
33170;SDS011;19535;50.672;4.206;2023-11-19T12:30:02;14.45;;;3.53;;
33170;SDS011;19535;50.672;4.206;2023-11-19T12:32:42;7.07;;;2.50;;
33170;SDS011;19535;50.672;4.206;2023-11-19T12:35:10;8.00;;;2.78;;
33170;SDS011;19535;50.672;4.206;2023-11-19T12:37:45;7.72;;;2.55;;
33170;SDS011;19535;50.672;4.206;2023-11-19T12:40:17;11.77;;;3.30;;
33170;SDS011;19535;50.672;4.206;2023-11-19T12:42:45;5.85;;;2.50;;
33170;SDS011;19535;50.672;4.206;2023-11-19T12:45:13;8.52;;;2.75;;
33170;SDS011;19535;50.672;4.206;2023-11-19T12:47:42;7.30;;;2.20;;
33170;SDS011;19535;50.672;4.206;2023-11-19T12:50:10;7.78;;;2.33;;
33170;SDS011;19535;50.672;4.206;2023-11-19T12:52:37;5.55;;;2.25;;
33170;SDS011;19535;50.672;4.206;2023-11-19T12:55:04;9.40;;;3.00;;
33170;SDS011;19535;50.672;4.206;2023-11-19T12:57:52;8.55;;;2.50;;
33170;SDS011;19535;50.672;4.206;2023-11-19T13:00:21;6.18;;;2.55;;
33170;SDS011;19535;50.672;4.206;2023-11-19T13:02:53;8.23;;;2.60;;
33170;SDS011;19535;50.672;4.206;2023-11-19T13:05:26;6.78;;;2.78;;
33170;SDS011;19535;50.672;4.206;2023-11-19T13:07:58;11.35;;;2.63;;
33170;SDS011;19535;50.672;4.206;2023-11-19T13:10:29;9.80;;;2.60;;
33170;SDS011;19535;50.672;4.206;2023-11-19T13:13:08;8.00;;;2.65;;
33170;SDS011;19535;50.672;4.206;2023-11-19T13:15:35;7.20;;;2.58;;
33170;SDS011;19535;50.672;4.206;2023-11-19T13:18:02;7.28;;;2.88;;
33170;SDS011;19535;50.672;4.206;2023-11-19T13:20:30;6.10;;;2.55;;
33170;SDS011;19535;50.672;4.206;2023-11-19T13:22:58;7.13;;;2.90;;
33170;SDS011;19535;50.672;4.206;2023-11-19T13:25:26;7.15;;;2.17;;
33170;SDS011;19535;50.672;4.206;2023-11-19T13:27:54;6.57;;;2.25;;
33170;SDS011;19535;50.672;4.206;2023-11-19T13:30:22;8.20;;;2.78;;
33170;SDS011;19535;50.672;4.206;2023-11-19T13:32:52;6.65;;;2.33;;
33170;SDS011;19535;50.672;4.206;2023-11-19T13:37:49;6.07;;;2.67;;
33170;SDS011;19535;50.672;4.206;2023-11-19T13:40:16;5.10;;;2.40;;
33170;SDS011;19535;50.672;4.206;2023-11-19T13:42:43;9.57;;;2.95;;
33170;SDS011;19535;50.672;4.206;2023-11-19T13:45:10;7.38;;;2.70;;
33170;SDS011;19535;50.672;4.206;2023-11-19T13:47:39;8.02;;;2.90;;
33170;SDS011;19535;50.672;4.206;2023-11-19T13:50:08;6.38;;;2.92;;
33170;SDS011;19535;50.672;4.206;2023-11-19T13:52:41;6.32;;;2.70;;
33170;SDS011;19535;50.672;4.206;2023-11-19T13:55:09;8.80;;;2.67;;
33170;SDS011;19535;50.672;4.206;2023-11-19T13:57:37;7.80;;;2.97;;
33170;SDS011;19535;50.672;4.206;2023-11-19T14:00:05;8.77;;;3.08;;
33170;SDS011;19535;50.672;4.206;2023-11-19T14:02:42;6.35;;;2.65;;
33170;SDS011;19535;50.672;4.206;2023-11-19T14:05:09;7.18;;;2.92;;
33170;SDS011;19535;50.672;4.206;2023-11-19T14:07:40;7.68;;;2.90;;
33170;SDS011;19535;50.672;4.206;2023-11-19T14:10:07;7.40;;;3.08;;
33170;SDS011;19535;50.672;4.206;2023-11-19T14:12:37;7.95;;;3.25;;
33170;SDS011;19535;50.672;4.206;2023-11-19T14:15:05;6.72;;;3.00;;
33170;SDS011;19535;50.672;4.206;2023-11-19T14:17:34;7.72;;;3.00;;
33170;SDS011;19535;50.672;4.206;2023-11-19T14:20:02;7.00;;;2.75;;
33170;SDS011;19535;50.672;4.206;2023-11-19T14:22:39;9.65;;;3.33;;
33170;SDS011;19535;50.672;4.206;2023-11-19T14:25:07;7.07;;;2.35;;
33170;SDS011;19535;50.672;4.206;2023-11-19T14:27:39;6.30;;;2.72;;
33170;SDS011;19535;50.672;4.206;2023-11-19T14:30:08;7.13;;;3.00;;
33170;SDS011;19535;50.672;4.206;2023-11-19T14:32:45;7.85;;;2.83;;
33170;SDS011;19535;50.672;4.206;2023-11-19T14:35:13;8.73;;;2.85;;
33170;SDS011;19535;50.672;4.206;2023-11-19T14:37:40;6.25;;;2.50;;
33170;SDS011;19535;50.672;4.206;2023-11-19T14:40:07;5.97;;;2.67;;
33170;SDS011;19535;50.672;4.206;2023-11-19T14:42:37;7.57;;;2.83;;
33170;SDS011;19535;50.672;4.206;2023-11-19T14:47:34;8.50;;;2.63;;
33170;SDS011;19535;50.672;4.206;2023-11-19T14:50:01;7.18;;;3.00;;
33170;SDS011;19535;50.672;4.206;2023-11-19T14:52:29;7.60;;;2.78;;
33170;SDS011;19535;50.672;4.206;2023-11-19T14:54:56;9.30;;;3.50;;
33170;SDS011;19535;50.672;4.206;2023-11-19T14:57:23;6.20;;;2.60;;
33170;SDS011;19535;50.672;4.206;2023-11-19T14:59:50;5.93;;;2.53;;
33170;SDS011;19535;50.672;4.206;2023-11-19T15:02:17;5.82;;;2.95;;
33170;SDS011;19535;50.672;4.206;2023-11-19T15:04:44;7.20;;;2.65;;
33170;SDS011;19535;50.672;4.206;2023-11-19T15:07:11;7.00;;;2.97;;
33170;SDS011;19535;50.672;4.206;2023-11-19T15:09:38;7.32;;;2.70;;
33170;SDS011;19535;50.672;4.206;2023-11-19T15:12:05;5.55;;;2.67;;
33170;SDS011;19535;50.672;4.206;2023-11-19T15:14:33;6.10;;;2.53;;
33170;SDS011;19535;50.672;4.206;2023-11-19T15:17:00;5.60;;;2.22;;
33170;SDS011;19535;50.672;4.206;2023-11-19T15:19:27;5.05;;;2.63;;
33170;SDS011;19535;50.672;4.206;2023-11-19T15:21:54;5.40;;;2.45;;
33170;SDS011;19535;50.672;4.206;2023-11-19T15:24:21;6.75;;;3.00;;
33170;SDS011;19535;50.672;4.206;2023-11-19T15:26:48;6.43;;;2.45;;
33170;SDS011;19535;50.672;4.206;2023-11-19T15:29:15;5.53;;;2.63;;
33170;SDS011;19535;50.672;4.206;2023-11-19T15:31:42;6.55;;;2.38;;
33170;SDS011;19535;50.672;4.206;2023-11-19T15:34:09;4.93;;;2.20;;
33170;SDS011;19535;50.672;4.206;2023-11-19T15:36:37;5.55;;;2.78;;
33170;SDS011;19535;50.672;4.206;2023-11-19T15:39:04;5.88;;;2.33;;
33170;SDS011;19535;50.672;4.206;2023-11-19T15:41:31;6.20;;;2.47;;
33170;SDS011;19535;50.672;4.206;2023-11-19T15:43:59;7.38;;;3.13;;